sensor_id;sensor_type;location;lat;lon;timestamp;P1;durP1;ratioP1;P2;durP2;ratioP2
4696;SDS011;2362;50.780;0.292;2024-03-02T00:02:24;9.20;;;1.77;;
4696;SDS011;2362;50.780;0.292;2024-03-02T00:04:50;7.77;;;2.33;;
4696;SDS011;2362;50.780;0.292;2024-03-02T00:07:16;13.57;;;1.90;;
4696;SDS011;2362;50.780;0.292;2024-03-02T00:09:42;12.23;;;1.93;;
4696;SDS011;2362;50.780;0.292;2024-03-02T00:12:08;20.87;;;2.37;;
4696;SDS011;2362;50.780;0.292;2024-03-02T00:14:40;12.70;;;2.30;;
4696;SDS011;2362;50.780;0.292;2024-03-02T00:17:08;10.17;;;2.30;;
4696;SDS011;2362;50.780;0.292;2024-03-02T00:19:46;12.93;;;2.10;;
4696;SDS011;2362;50.780;0.292;2024-03-02T00:22:12;12.30;;;2.53;;
4696;SDS011;2362;50.780;0.292;2024-03-02T00:24:38;10.17;;;1.43;;
4696;SDS011;2362;50.780;0.292;2024-03-02T00:27:04;13.20;;;1.90;;
4696;SDS011;2362;50.780;0.292;2024-03-02T00:29:32;7.27;;;2.13;;
4696;SDS011;2362;50.780;0.292;2024-03-02T00:31:58;14.13;;;2.73;;
4696;SDS011;2362;50.780;0.292;2024-03-02T00:34:24;9.80;;;1.60;;
4696;SDS011;2362;50.780;0.292;2024-03-02T00:36:50;8.57;;;1.67;;
4696;SDS011;2362;50.780;0.292;2024-03-02T00:39:16;8.23;;;1.77;;
4696;SDS011;2362;50.780;0.292;2024-03-02T00:41:42;11.50;;;2.17;;
4696;SDS011;2362;50.780;0.292;2024-03-02T00:44:12;6.27;;;1.50;;
4696;SDS011;2362;50.780;0.292;2024-03-02T00:46:38;9.53;;;2.03;;
4696;SDS011;2362;50.780;0.292;2024-03-02T00:51:45;11.73;;;2.73;;
4696;SDS011;2362;50.780;0.292;2024-03-02T00:54:13;15.57;;;2.30;;
4696;SDS011;2362;50.780;0.292;2024-03-02T00:56:41;9.77;;;2.40;;
4696;SDS011;2362;50.780;0.292;2024-03-02T00:59:07;8.60;;;1.77;;
4696;SDS011;2362;50.780;0.292;2024-03-02T01:01:34;15.63;;;2.20;;
4696;SDS011;2362;50.780;0.292;2024-03-02T01:03:59;9.87;;;2.57;;
4696;SDS011;2362;50.780;0.292;2024-03-02T01:06:25;18.10;;;2.93;;
4696;SDS011;2362;50.780;0.292;2024-03-02T01:08:51;15.77;;;2.70;;
4696;SDS011;2362;50.780;0.292;2024-03-02T01:11:17;11.17;;;2.50;;
4696;SDS011;2362;50.780;0.292;2024-03-02T01:13:43;10.33;;;2.27;;
4696;SDS011;2362;50.780;0.292;2024-03-02T01:16:09;15.37;;;2.20;;
4696;SDS011;2362;50.780;0.292;2024-03-02T01:18:35;16.23;;;2.90;;
4696;SDS011;2362;50.780;0.292;2024-03-02T01:21:01;15.70;;;2.20;;
4696;SDS011;2362;50.780;0.292;2024-03-02T01:23:26;8.20;;;2.07;;
4696;SDS011;2362;50.780;0.292;2024-03-02T01:25:52;8.33;;;1.70;;
4696;SDS011;2362;50.780;0.292;2024-03-02T01:28:18;13.60;;;1.97;;
4696;SDS011;2362;50.780;0.292;2024-03-02T01:30:44;12.80;;;1.97;;
4696;SDS011;2362;50.780;0.292;2024-03-02T01:33:10;6.30;;;1.63;;
4696;SDS011;2362;50.780;0.292;2024-03-02T01:35:36;12.73;;;2.03;;
4696;SDS011;2362;50.780;0.292;2024-03-02T01:38:02;12.57;;;2.00;;
4696;SDS011;2362;50.780;0.292;2024-03-02T01:40:28;8.53;;;2.07;;
4696;SDS011;2362;50.780;0.292;2024-03-02T01:42:54;9.93;;;2.80;;
4696;SDS011;2362;50.780;0.292;2024-03-02T01:45:20;10.60;;;2.13;;
4696;SDS011;2362;50.780;0.292;2024-03-02T01:47:46;10.53;;;2.67;;
4696;SDS011;2362;50.780;0.292;2024-03-02T01:50:12;7.63;;;1.70;;
4696;SDS011;2362;50.780;0.292;2024-03-02T01:52:39;13.37;;;2.27;;
4696;SDS011;2362;50.780;0.292;2024-03-02T01:55:05;11.87;;;2.33;;
4696;SDS011;2362;50.780;0.292;2024-03-02T01:57:31;16.37;;;2.40;;
4696;SDS011;2362;50.780;0.292;2024-03-02T01:59:57;11.43;;;2.40;;
4696;SDS011;2362;50.780;0.292;2024-03-02T02:02:23;11.87;;;2.67;;
4696;SDS011;2362;50.780;0.292;2024-03-02T02:04:49;7.73;;;2.83;;
4696;SDS011;2362;50.780;0.292;2024-03-02T02:07:15;12.27;;;3.50;;
4696;SDS011;2362;50.780;0.292;2024-03-02T02:09:43;19.17;;;3.20;;
4696;SDS011;2362;50.780;0.292;2024-03-02T02:12:09;8.20;;;2.20;;
4696;SDS011;2362;50.780;0.292;2024-03-02T02:14:35;9.63;;;2.30;;
4696;SDS011;2362;50.780;0.292;2024-03-02T02:17:01;14.57;;;2.50;;
4696;SDS011;2362;50.780;0.292;2024-03-02T02:19:27;21.50;;;2.87;;
4696;SDS011;2362;50.780;0.292;2024-03-02T02:21:54;17.07;;;3.63;;
4696;SDS011;2362;50.780;0.292;2024-03-02T02:24:20;15.50;;;2.70;;
4696;SDS011;2362;50.780;0.292;2024-03-02T02:26:45;21.13;;;2.83;;
4696;SDS011;2362;50.780;0.292;2024-03-02T02:29:11;22.70;;;3.70;;
4696;SDS011;2362;50.780;0.292;2024-03-02T02:34:12;14.70;;;3.10;;
4696;SDS011;2362;50.780;0.292;2024-03-02T02:36:39;14.90;;;3.13;;
4696;SDS011;2362;50.780;0.292;2024-03-02T02:39:05;16.73;;;3.27;;
4696;SDS011;2362;50.780;0.292;2024-03-02T02:41:33;19.90;;;2.83;;
4696;SDS011;2362;50.780;0.292;2024-03-02T02:43:58;11.03;;;3.23;;
4696;SDS011;2362;50.780;0.292;2024-03-02T02:46:24;22.73;;;3.03;;
4696;SDS011;2362;50.780;0.292;2024-03-02T02:48:49;18.10;;;2.83;;
4696;SDS011;2362;50.780;0.292;2024-03-02T02:51:18;12.60;;;2.93;;
4696;SDS011;2362;50.780;0.292;2024-03-02T02:53:43;16.80;;;2.63;;
4696;SDS011;2362;50.780;0.292;2024-03-02T02:56:09;21.13;;;4.87;;
4696;SDS011;2362;50.780;0.292;2024-03-02T02:58:35;17.13;;;3.40;;
4696;SDS011;2362;50.780;0.292;2024-03-02T03:01:00;11.07;;;2.80;;
4696;SDS011;2362;50.780;0.292;2024-03-02T03:03:26;12.30;;;2.87;;
4696;SDS011;2362;50.780;0.292;2024-03-02T03:05:52;21.80;;;3.00;;
4696;SDS011;2362;50.780;0.292;2024-03-02T03:08:18;12.20;;;2.93;;
4696;SDS011;2362;50.780;0.292;2024-03-02T03:10:43;16.27;;;3.10;;
4696;SDS011;2362;50.780;0.292;2024-03-02T03:13:09;16.70;;;3.37;;
4696;SDS011;2362;50.780;0.292;2024-03-02T03:15:35;19.07;;;2.63;;
4696;SDS011;2362;50.780;0.292;2024-03-02T03:18:02;16.63;;;3.03;;
4696;SDS011;2362;50.780;0.292;2024-03-02T03:20:30;12.93;;;2.70;;
4696;SDS011;2362;50.780;0.292;2024-03-02T03:22:56;23.77;;;3.00;;
4696;SDS011;2362;50.780;0.292;2024-03-02T03:25:23;19.87;;;2.63;;
4696;SDS011;2362;50.780;0.292;2024-03-02T03:27:48;20.23;;;3.40;;
4696;SDS011;2362;50.780;0.292;2024-03-02T03:30:14;20.47;;;3.23;;
4696;SDS011;2362;50.780;0.292;2024-03-02T03:32:40;19.97;;;3.17;;
4696;SDS011;2362;50.780;0.292;2024-03-02T03:35:06;18.03;;;3.33;;
4696;SDS011;2362;50.780;0.292;2024-03-02T03:37:32;19.70;;;3.97;;
4696;SDS011;2362;50.780;0.292;2024-03-02T03:40:07;18.57;;;3.10;;
4696;SDS011;2362;50.780;0.292;2024-03-02T03:42:36;22.40;;;3.20;;
4696;SDS011;2362;50.780;0.292;2024-03-02T03:45:02;20.87;;;3.57;;
4696;SDS011;2362;50.780;0.292;2024-03-02T03:47:28;26.00;;;3.97;;
4696;SDS011;2362;50.780;0.292;2024-03-02T03:49:55;12.53;;;2.80;;
4696;SDS011;2362;50.780;0.292;2024-03-02T03:52:21;20.90;;;3.47;;
4696;SDS011;2362;50.780;0.292;2024-03-02T03:54:47;16.00;;;3.07;;
4696;SDS011;2362;50.780;0.292;2024-03-02T03:57:12;20.20;;;3.57;;
4696;SDS011;2362;50.780;0.292;2024-03-02T03:59:38;17.97;;;2.73;;
4696;SDS011;2362;50.780;0.292;2024-03-02T04:02:03;16.97;;;2.73;;
4696;SDS011;2362;50.780;0.292;2024-03-02T04:04:29;18.27;;;3.47;;
4696;SDS011;2362;50.780;0.292;2024-03-02T04:06:55;22.60;;;3.40;;
4696;SDS011;2362;50.780;0.292;2024-03-02T04:09:21;15.03;;;2.60;;
4696;SDS011;2362;50.780;0.292;2024-03-02T04:11:46;16.17;;;2.93;;
4696;SDS011;2362;50.780;0.292;2024-03-02T04:14:12;15.53;;;2.83;;
4696;SDS011;2362;50.780;0.292;2024-03-02T04:16:38;18.17;;;2.90;;
4696;SDS011;2362;50.780;0.292;2024-03-02T04:19:04;17.10;;;3.30;;
4696;SDS011;2362;50.780;0.292;2024-03-02T04:21:30;22.17;;;3.87;;
4696;SDS011;2362;50.780;0.292;2024-03-02T04:23:55;29.23;;;4.00;;
4696;SDS011;2362;50.780;0.292;2024-03-02T04:26:23;19.03;;;2.83;;
4696;SDS011;2362;50.780;0.292;2024-03-02T04:28:50;15.27;;;2.93;;
4696;SDS011;2362;50.780;0.292;2024-03-02T04:31:16;20.50;;;3.00;;
4696;SDS011;2362;50.780;0.292;2024-03-02T04:33:42;21.10;;;3.00;;
4696;SDS011;2362;50.780;0.292;2024-03-02T04:36:08;21.93;;;3.43;;
4696;SDS011;2362;50.780;0.292;2024-03-02T04:38:37;19.50;;;3.20;;
4696;SDS011;2362;50.780;0.292;2024-03-02T04:41:03;28.90;;;5.67;;
4696;SDS011;2362;50.780;0.292;2024-03-02T04:43:31;13.80;;;2.93;;
4696;SDS011;2362;50.780;0.292;2024-03-02T04:45:57;23.20;;;3.83;;
4696;SDS011;2362;50.780;0.292;2024-03-02T04:48:23;16.27;;;3.33;;
4696;SDS011;2362;50.780;0.292;2024-03-02T04:50:49;18.50;;;3.40;;
4696;SDS011;2362;50.780;0.292;2024-03-02T04:53:15;25.10;;;3.90;;
4696;SDS011;2362;50.780;0.292;2024-03-02T04:55:40;22.47;;;3.47;;
4696;SDS011;2362;50.780;0.292;2024-03-02T04:58:06;24.43;;;2.67;;
4696;SDS011;2362;50.780;0.292;2024-03-02T05:00:32;21.13;;;3.03;;
4696;SDS011;2362;50.780;0.292;2024-03-02T05:02:58;23.27;;;3.17;;
4696;SDS011;2362;50.780;0.292;2024-03-02T05:05:23;19.00;;;3.30;;
4696;SDS011;2362;50.780;0.292;2024-03-02T05:07:49;16.73;;;3.27;;
4696;SDS011;2362;50.780;0.292;2024-03-02T05:10:15;15.57;;;3.40;;
4696;SDS011;2362;50.780;0.292;2024-03-02T05:12:40;17.17;;;3.67;;
4696;SDS011;2362;50.780;0.292;2024-03-02T05:15:10;14.07;;;2.83;;
4696;SDS011;2362;50.780;0.292;2024-03-02T05:17:39;24.90;;;3.80;;
4696;SDS011;2362;50.780;0.292;2024-03-02T05:20:06;18.60;;;3.30;;
4696;SDS011;2362;50.780;0.292;2024-03-02T05:22:35;22.27;;;3.43;;
4696;SDS011;2362;50.780;0.292;2024-03-02T05:25:02;19.57;;;3.90;;
4696;SDS011;2362;50.780;0.292;2024-03-02T05:27:31;24.33;;;3.77;;
4696;SDS011;2362;50.780;0.292;2024-03-02T05:29:57;15.40;;;3.23;;
4696;SDS011;2362;50.780;0.292;2024-03-02T05:32:23;12.17;;;2.90;;
4696;SDS011;2362;50.780;0.292;2024-03-02T05:34:49;17.27;;;3.30;;
4696;SDS011;2362;50.780;0.292;2024-03-02T05:37:16;15.80;;;2.93;;
4696;SDS011;2362;50.780;0.292;2024-03-02T05:39:42;22.63;;;3.40;;
4696;SDS011;2362;50.780;0.292;2024-03-02T05:42:08;19.40;;;2.80;;
4696;SDS011;2362;50.780;0.292;2024-03-02T05:44:35;19.13;;;2.93;;
4696;SDS011;2362;50.780;0.292;2024-03-02T05:47:01;21.67;;;3.10;;
4696;SDS011;2362;50.780;0.292;2024-03-02T05:49:27;19.80;;;3.10;;
4696;SDS011;2362;50.780;0.292;2024-03-02T05:51:52;16.20;;;3.10;;
4696;SDS011;2362;50.780;0.292;2024-03-02T05:54:18;22.90;;;3.20;;
4696;SDS011;2362;50.780;0.292;2024-03-02T05:56:45;26.77;;;4.53;;
4696;SDS011;2362;50.780;0.292;2024-03-02T05:59:10;29.17;;;4.03;;
4696;SDS011;2362;50.780;0.292;2024-03-02T06:01:44;26.33;;;3.40;;
4696;SDS011;2362;50.780;0.292;2024-03-02T06:04:12;17.33;;;3.33;;
4696;SDS011;2362;50.780;0.292;2024-03-02T06:06:38;17.73;;;3.90;;
4696;SDS011;2362;50.780;0.292;2024-03-02T06:09:05;16.20;;;3.00;;
4696;SDS011;2362;50.780;0.292;2024-03-02T06:11:37;16.57;;;3.07;;
4696;SDS011;2362;50.780;0.292;2024-03-02T06:14:06;21.03;;;3.20;;
4696;SDS011;2362;50.780;0.292;2024-03-02T06:16:32;31.27;;;5.07;;
4696;SDS011;2362;50.780;0.292;2024-03-02T06:18:58;14.97;;;2.77;;
4696;SDS011;2362;50.780;0.292;2024-03-02T06:21:25;21.63;;;3.57;;
4696;SDS011;2362;50.780;0.292;2024-03-02T06:23:50;21.20;;;3.50;;
4696;SDS011;2362;50.780;0.292;2024-03-02T06:26:16;17.93;;;2.93;;
4696;SDS011;2362;50.780;0.292;2024-03-02T06:28:42;19.93;;;3.30;;
4696;SDS011;2362;50.780;0.292;2024-03-02T06:31:08;19.23;;;3.33;;
4696;SDS011;2362;50.780;0.292;2024-03-02T06:33:34;15.67;;;3.37;;
4696;SDS011;2362;50.780;0.292;2024-03-02T06:36:00;17.43;;;3.03;;
4696;SDS011;2362;50.780;0.292;2024-03-02T06:38:25;21.13;;;3.20;;
4696;SDS011;2362;50.780;0.292;2024-03-02T06:40:51;20.27;;;3.53;;
4696;SDS011;2362;50.780;0.292;2024-03-02T06:43:17;26.73;;;3.80;;
4696;SDS011;2362;50.780;0.292;2024-03-02T06:45:42;25.00;;;4.87;;
4696;SDS011;2362;50.780;0.292;2024-03-02T06:48:08;19.77;;;3.50;;
4696;SDS011;2362;50.780;0.292;2024-03-02T06:50:33;21.97;;;3.00;;
4696;SDS011;2362;50.780;0.292;2024-03-02T06:52:59;13.93;;;3.63;;
4696;SDS011;2362;50.780;0.292;2024-03-02T06:55:25;29.77;;;4.17;;
4696;SDS011;2362;50.780;0.292;2024-03-02T06:57:51;19.30;;;4.10;;
4696;SDS011;2362;50.780;0.292;2024-03-02T07:00:19;16.93;;;2.60;;
4696;SDS011;2362;50.780;0.292;2024-03-02T07:02:45;21.03;;;3.03;;
4696;SDS011;2362;50.780;0.292;2024-03-02T07:05:11;25.63;;;4.13;;
4696;SDS011;2362;50.780;0.292;2024-03-02T07:07:37;24.27;;;4.40;;
4696;SDS011;2362;50.780;0.292;2024-03-02T07:10:06;24.70;;;3.70;;
4696;SDS011;2362;50.780;0.292;2024-03-02T07:12:32;29.53;;;4.07;;
4696;SDS011;2362;50.780;0.292;2024-03-02T07:14:58;27.30;;;3.53;;
4696;SDS011;2362;50.780;0.292;2024-03-02T07:17:30;22.97;;;3.73;;
4696;SDS011;2362;50.780;0.292;2024-03-02T07:19:56;16.03;;;2.67;;
4696;SDS011;2362;50.780;0.292;2024-03-02T07:22:22;21.13;;;4.00;;
4696;SDS011;2362;50.780;0.292;2024-03-02T07:24:48;17.37;;;3.80;;
4696;SDS011;2362;50.780;0.292;2024-03-02T07:27:14;17.30;;;2.73;;
4696;SDS011;2362;50.780;0.292;2024-03-02T07:29:40;21.90;;;4.20;;
4696;SDS011;2362;50.780;0.292;2024-03-02T07:32:06;23.10;;;4.80;;
4696;SDS011;2362;50.780;0.292;2024-03-02T07:34:32;21.73;;;3.90;;
4696;SDS011;2362;50.780;0.292;2024-03-02T07:36:58;22.47;;;3.63;;
4696;SDS011;2362;50.780;0.292;2024-03-02T07:39:24;13.23;;;2.87;;
4696;SDS011;2362;50.780;0.292;2024-03-02T07:41:50;21.07;;;2.67;;
4696;SDS011;2362;50.780;0.292;2024-03-02T07:44:16;10.50;;;2.43;;
4696;SDS011;2362;50.780;0.292;2024-03-02T07:46:44;12.20;;;3.13;;
4696;SDS011;2362;50.780;0.292;2024-03-02T07:49:11;19.77;;;3.87;;
4696;SDS011;2362;50.780;0.292;2024-03-02T07:51:38;16.43;;;3.07;;
4696;SDS011;2362;50.780;0.292;2024-03-02T07:54:04;12.00;;;2.40;;
4696;SDS011;2362;50.780;0.292;2024-03-02T07:56:30;19.83;;;3.03;;
4696;SDS011;2362;50.780;0.292;2024-03-02T07:58:55;15.60;;;3.23;;
4696;SDS011;2362;50.780;0.292;2024-03-02T08:01:25;25.57;;;4.53;;
4696;SDS011;2362;50.780;0.292;2024-03-02T08:03:58;16.00;;;3.73;;
4696;SDS011;2362;50.780;0.292;2024-03-02T08:06:25;20.80;;;3.67;;
4696;SDS011;2362;50.780;0.292;2024-03-02T08:08:54;26.20;;;5.23;;
4696;SDS011;2362;50.780;0.292;2024-03-02T08:11:20;16.70;;;2.93;;
4696;SDS011;2362;50.780;0.292;2024-03-02T08:13:47;17.37;;;3.20;;
4696;SDS011;2362;50.780;0.292;2024-03-02T08:16:13;23.87;;;3.57;;
4696;SDS011;2362;50.780;0.292;2024-03-02T08:18:45;13.10;;;2.83;;
4696;SDS011;2362;50.780;0.292;2024-03-02T08:21:11;15.77;;;2.77;;
4696;SDS011;2362;50.780;0.292;2024-03-02T08:23:37;14.03;;;2.30;;
4696;SDS011;2362;50.780;0.292;2024-03-02T08:26:03;12.43;;;2.40;;
4696;SDS011;2362;50.780;0.292;2024-03-02T08:28:29;13.27;;;3.17;;
4696;SDS011;2362;50.780;0.292;2024-03-02T08:30:55;16.20;;;3.27;;
4696;SDS011;2362;50.780;0.292;2024-03-02T08:33:21;8.60;;;1.97;;
4696;SDS011;2362;50.780;0.292;2024-03-02T08:35:47;10.90;;;2.30;;
4696;SDS011;2362;50.780;0.292;2024-03-02T08:38:13;15.53;;;3.07;;
4696;SDS011;2362;50.780;0.292;2024-03-02T08:40:38;12.90;;;2.43;;
4696;SDS011;2362;50.780;0.292;2024-03-02T08:43:04;11.80;;;2.90;;
4696;SDS011;2362;50.780;0.292;2024-03-02T08:45:30;19.83;;;2.73;;
4696;SDS011;2362;50.780;0.292;2024-03-02T08:47:56;19.80;;;3.13;;
4696;SDS011;2362;50.780;0.292;2024-03-02T08:50:21;15.20;;;3.00;;
4696;SDS011;2362;50.780;0.292;2024-03-02T08:52:47;18.30;;;3.53;;
4696;SDS011;2362;50.780;0.292;2024-03-02T08:55:13;21.50;;;3.47;;
4696;SDS011;2362;50.780;0.292;2024-03-02T08:57:38;20.30;;;3.03;;
4696;SDS011;2362;50.780;0.292;2024-03-02T09:00:05;25.37;;;3.83;;
4696;SDS011;2362;50.780;0.292;2024-03-02T09:02:32;19.20;;;3.53;;
4696;SDS011;2362;50.780;0.292;2024-03-02T09:04:58;26.53;;;4.90;;
4696;SDS011;2362;50.780;0.292;2024-03-02T09:07:24;14.00;;;3.00;;
4696;SDS011;2362;50.780;0.292;2024-03-02T09:09:49;13.13;;;3.37;;
4696;SDS011;2362;50.780;0.292;2024-03-02T09:12:15;20.33;;;3.37;;
4696;SDS011;2362;50.780;0.292;2024-03-02T09:14:41;24.13;;;4.43;;
4696;SDS011;2362;50.780;0.292;2024-03-02T09:17:06;25.00;;;4.33;;
4696;SDS011;2362;50.780;0.292;2024-03-02T09:19:33;18.87;;;4.17;;
4696;SDS011;2362;50.780;0.292;2024-03-02T09:21:58;18.17;;;3.60;;
4696;SDS011;2362;50.780;0.292;2024-03-02T09:24:24;22.00;;;4.10;;
4696;SDS011;2362;50.780;0.292;2024-03-02T09:26:50;16.53;;;2.27;;
4696;SDS011;2362;50.780;0.292;2024-03-02T09:29:15;19.17;;;3.23;;
4696;SDS011;2362;50.780;0.292;2024-03-02T09:31:41;20.77;;;3.07;;
4696;SDS011;2362;50.780;0.292;2024-03-02T09:34:08;23.07;;;4.20;;
4696;SDS011;2362;50.780;0.292;2024-03-02T09:36:33;22.87;;;3.10;;
4696;SDS011;2362;50.780;0.292;2024-03-02T09:38:59;14.77;;;3.23;;
4696;SDS011;2362;50.780;0.292;2024-03-02T09:41:25;17.07;;;3.23;;
4696;SDS011;2362;50.780;0.292;2024-03-02T09:43:51;25.73;;;3.37;;
4696;SDS011;2362;50.780;0.292;2024-03-02T09:46:16;18.87;;;3.93;;
4696;SDS011;2362;50.780;0.292;2024-03-02T09:48:44;23.97;;;3.77;;
4696;SDS011;2362;50.780;0.292;2024-03-02T09:51:10;13.50;;;2.87;;
4696;SDS011;2362;50.780;0.292;2024-03-02T09:53:36;21.53;;;3.63;;
4696;SDS011;2362;50.780;0.292;2024-03-02T09:56:02;16.73;;;3.60;;
4696;SDS011;2362;50.780;0.292;2024-03-02T09:58:29;17.23;;;2.73;;
4696;SDS011;2362;50.780;0.292;2024-03-02T10:00:55;18.13;;;3.70;;
4696;SDS011;2362;50.780;0.292;2024-03-02T10:03:21;22.60;;;3.33;;
4696;SDS011;2362;50.780;0.292;2024-03-02T10:05:48;10.67;;;2.60;;
4696;SDS011;2362;50.780;0.292;2024-03-02T10:08:14;12.07;;;2.57;;
4696;SDS011;2362;50.780;0.292;2024-03-02T10:10:40;17.97;;;3.37;;
4696;SDS011;2362;50.780;0.292;2024-03-02T10:13:08;16.57;;;3.57;;
4696;SDS011;2362;50.780;0.292;2024-03-02T10:15:35;13.30;;;2.73;;
4696;SDS011;2362;50.780;0.292;2024-03-02T10:18:09;29.13;;;3.00;;
4696;SDS011;2362;50.780;0.292;2024-03-02T10:20:39;12.63;;;2.40;;
4696;SDS011;2362;50.780;0.292;2024-03-02T10:23:12;17.90;;;3.27;;
4696;SDS011;2362;50.780;0.292;2024-03-02T10:25:39;21.00;;;2.80;;
4696;SDS011;2362;50.780;0.292;2024-03-02T10:28:05;11.37;;;2.73;;
4696;SDS011;2362;50.780;0.292;2024-03-02T10:30:31;13.23;;;2.37;;
4696;SDS011;2362;50.780;0.292;2024-03-02T10:33:00;24.03;;;3.33;;
4696;SDS011;2362;50.780;0.292;2024-03-02T10:35:27;13.83;;;2.60;;
4696;SDS011;2362;50.780;0.292;2024-03-02T10:37:53;17.93;;;2.93;;
4696;SDS011;2362;50.780;0.292;2024-03-02T10:40:22;11.63;;;2.00;;
4696;SDS011;2362;50.780;0.292;2024-03-02T10:42:49;18.10;;;2.80;;
4696;SDS011;2362;50.780;0.292;2024-03-02T10:45:19;10.97;;;2.30;;
4696;SDS011;2362;50.780;0.292;2024-03-02T10:47:49;11.90;;;3.17;;
4696;SDS011;2362;50.780;0.292;2024-03-02T10:50:15;14.70;;;3.00;;
4696;SDS011;2362;50.780;0.292;2024-03-02T10:52:41;15.77;;;3.07;;
4696;SDS011;2362;50.780;0.292;2024-03-02T10:55:07;12.23;;;2.27;;
4696;SDS011;2362;50.780;0.292;2024-03-02T10:57:52;21.43;;;3.33;;
4696;SDS011;2362;50.780;0.292;2024-03-02T11:00:19;20.07;;;2.90;;
4696;SDS011;2362;50.780;0.292;2024-03-02T11:03:11;14.47;;;2.80;;
4696;SDS011;2362;50.780;0.292;2024-03-02T11:05:42;15.20;;;2.40;;
4696;SDS011;2362;50.780;0.292;2024-03-02T11:08:13;14.37;;;2.73;;
4696;SDS011;2362;50.780;0.292;2024-03-02T11:10:41;15.90;;;2.60;;
4696;SDS011;2362;50.780;0.292;2024-03-02T11:13:16;15.47;;;3.10;;
4696;SDS011;2362;50.780;0.292;2024-03-02T11:15:46;14.60;;;2.63;;
4696;SDS011;2362;50.780;0.292;2024-03-02T11:18:12;12.23;;;2.90;;
4696;SDS011;2362;50.780;0.292;2024-03-02T11:20:39;18.37;;;3.03;;
4696;SDS011;2362;50.780;0.292;2024-03-02T11:23:09;12.20;;;2.70;;
4696;SDS011;2362;50.780;0.292;2024-03-02T11:25:35;11.37;;;2.60;;
4696;SDS011;2362;50.780;0.292;2024-03-02T11:28:01;21.87;;;3.30;;
4696;SDS011;2362;50.780;0.292;2024-03-02T11:33:00;18.90;;;2.83;;
4696;SDS011;2362;50.780;0.292;2024-03-02T11:35:36;16.87;;;2.80;;
4696;SDS011;2362;50.780;0.292;2024-03-02T11:38:13;7.97;;;1.57;;
4696;SDS011;2362;50.780;0.292;2024-03-02T11:40:39;10.13;;;2.03;;
4696;SDS011;2362;50.780;0.292;2024-03-02T11:43:05;5.83;;;1.40;;
4696;SDS011;2362;50.780;0.292;2024-03-02T11:45:33;11.83;;;2.53;;
4696;SDS011;2362;50.780;0.292;2024-03-02T11:48:00;13.37;;;3.00;;
4696;SDS011;2362;50.780;0.292;2024-03-02T11:52:55;13.17;;;2.50;;
4696;SDS011;2362;50.780;0.292;2024-03-02T11:55:23;25.20;;;3.50;;
4696;SDS011;2362;50.780;0.292;2024-03-02T11:57:52;23.57;;;3.17;;
4696;SDS011;2362;50.780;0.292;2024-03-02T12:00:18;10.70;;;1.53;;
4696;SDS011;2362;50.780;0.292;2024-03-02T12:02:59;3.77;;;1.27;;
4696;SDS011;2362;50.780;0.292;2024-03-02T12:05:37;6.20;;;1.40;;
4696;SDS011;2362;50.780;0.292;2024-03-02T12:08:03;6.27;;;1.30;;
4696;SDS011;2362;50.780;0.292;2024-03-02T12:10:30;8.07;;;1.63;;
4696;SDS011;2362;50.780;0.292;2024-03-02T12:12:57;9.27;;;1.73;;
4696;SDS011;2362;50.780;0.292;2024-03-02T12:15:27;16.30;;;1.93;;
4696;SDS011;2362;50.780;0.292;2024-03-02T12:17:57;8.67;;;1.40;;
4696;SDS011;2362;50.780;0.292;2024-03-02T12:20:24;11.37;;;1.53;;
4696;SDS011;2362;50.780;0.292;2024-03-02T12:22:51;4.27;;;0.90;;
4696;SDS011;2362;50.780;0.292;2024-03-02T12:25:18;4.77;;;1.00;;
4696;SDS011;2362;50.780;0.292;2024-03-02T12:27:48;5.70;;;0.90;;
4696;SDS011;2362;50.780;0.292;2024-03-02T12:30:16;6.20;;;1.10;;
4696;SDS011;2362;50.780;0.292;2024-03-02T12:32:43;5.90;;;0.97;;
4696;SDS011;2362;50.780;0.292;2024-03-02T12:35:12;7.30;;;1.07;;
4696;SDS011;2362;50.780;0.292;2024-03-02T12:37:42;5.87;;;1.50;;
4696;SDS011;2362;50.780;0.292;2024-03-02T12:40:18;14.13;;;1.60;;
4696;SDS011;2362;50.780;0.292;2024-03-02T12:42:46;5.30;;;1.33;;
4696;SDS011;2362;50.780;0.292;2024-03-02T12:45:12;7.17;;;1.50;;
4696;SDS011;2362;50.780;0.292;2024-03-02T12:47:41;8.63;;;1.40;;
4696;SDS011;2362;50.780;0.292;2024-03-02T12:50:07;10.00;;;1.40;;
4696;SDS011;2362;50.780;0.292;2024-03-02T12:52:35;6.57;;;1.10;;
4696;SDS011;2362;50.780;0.292;2024-03-02T12:55:01;4.67;;;1.00;;
4696;SDS011;2362;50.780;0.292;2024-03-02T12:57:31;4.43;;;1.00;;
4696;SDS011;2362;50.780;0.292;2024-03-02T13:00:01;4.27;;;0.80;;
4696;SDS011;2362;50.780;0.292;2024-03-02T13:02:34;3.10;;;0.50;;
4696;SDS011;2362;50.780;0.292;2024-03-02T13:05:00;4.40;;;0.70;;
4696;SDS011;2362;50.780;0.292;2024-03-02T13:07:27;1.47;;;0.80;;
4696;SDS011;2362;50.780;0.292;2024-03-02T13:09:54;4.40;;;1.00;;
4696;SDS011;2362;50.780;0.292;2024-03-02T13:12:21;3.33;;;1.20;;
4696;SDS011;2362;50.780;0.292;2024-03-02T13:14:48;8.00;;;1.10;;
4696;SDS011;2362;50.780;0.292;2024-03-02T13:17:17;3.47;;;0.97;;
4696;SDS011;2362;50.780;0.292;2024-03-02T13:19:57;5.33;;;0.80;;
4696;SDS011;2362;50.780;0.292;2024-03-02T13:22:24;8.27;;;1.00;;
4696;SDS011;2362;50.780;0.292;2024-03-02T13:24:51;6.03;;;1.10;;
4696;SDS011;2362;50.780;0.292;2024-03-02T13:27:19;12.43;;;1.50;;
4696;SDS011;2362;50.780;0.292;2024-03-02T13:29:45;7.97;;;1.60;;
4696;SDS011;2362;50.780;0.292;2024-03-02T13:32:15;3.53;;;0.80;;
4696;SDS011;2362;50.780;0.292;2024-03-02T13:34:41;6.47;;;0.93;;
4696;SDS011;2362;50.780;0.292;2024-03-02T13:37:07;3.60;;;0.70;;
4696;SDS011;2362;50.780;0.292;2024-03-02T13:39:33;3.40;;;0.70;;
4696;SDS011;2362;50.780;0.292;2024-03-02T13:42:05;2.33;;;0.73;;
4696;SDS011;2362;50.780;0.292;2024-03-02T13:44:33;2.73;;;0.50;;
4696;SDS011;2362;50.780;0.292;2024-03-02T13:47:00;4.33;;;1.00;;
4696;SDS011;2362;50.780;0.292;2024-03-02T13:49:26;11.83;;;1.20;;
4696;SDS011;2362;50.780;0.292;2024-03-02T13:52:05;6.77;;;0.70;;
4696;SDS011;2362;50.780;0.292;2024-03-02T13:54:45;1.80;;;0.53;;
4696;SDS011;2362;50.780;0.292;2024-03-02T13:57:11;4.10;;;0.70;;
4696;SDS011;2362;50.780;0.292;2024-03-02T13:59:37;3.17;;;0.93;;
4696;SDS011;2362;50.780;0.292;2024-03-02T14:02:07;4.07;;;1.07;;
4696;SDS011;2362;50.780;0.292;2024-03-02T14:04:33;2.57;;;0.80;;
4696;SDS011;2362;50.780;0.292;2024-03-02T14:07:00;1.47;;;0.40;;
4696;SDS011;2362;50.780;0.292;2024-03-02T14:09:26;4.63;;;1.03;;
4696;SDS011;2362;50.780;0.292;2024-03-02T14:11:52;5.30;;;1.00;;
4696;SDS011;2362;50.780;0.292;2024-03-02T14:14:18;3.67;;;1.00;;
4696;SDS011;2362;50.780;0.292;2024-03-02T14:16:45;3.03;;;0.80;;
4696;SDS011;2362;50.780;0.292;2024-03-02T14:19:11;6.93;;;1.00;;
4696;SDS011;2362;50.780;0.292;2024-03-02T14:21:37;2.60;;;0.53;;
4696;SDS011;2362;50.780;0.292;2024-03-02T14:24:06;2.47;;;0.60;;
4696;SDS011;2362;50.780;0.292;2024-03-02T14:26:32;5.73;;;0.80;;
4696;SDS011;2362;50.780;0.292;2024-03-02T14:28:58;2.70;;;0.80;;
4696;SDS011;2362;50.780;0.292;2024-03-02T14:31:27;6.43;;;0.87;;
4696;SDS011;2362;50.780;0.292;2024-03-02T14:33:53;4.30;;;1.10;;
4696;SDS011;2362;50.780;0.292;2024-03-02T14:36:19;4.70;;;0.80;;
4696;SDS011;2362;50.780;0.292;2024-03-02T14:38:45;3.30;;;0.50;;
4696;SDS011;2362;50.780;0.292;2024-03-02T14:41:11;6.00;;;0.73;;
4696;SDS011;2362;50.780;0.292;2024-03-02T14:43:36;3.87;;;0.70;;
4696;SDS011;2362;50.780;0.292;2024-03-02T14:46:03;5.60;;;0.90;;
4696;SDS011;2362;50.780;0.292;2024-03-02T14:48:28;8.50;;;1.30;;
4696;SDS011;2362;50.780;0.292;2024-03-02T14:50:54;7.47;;;1.10;;
4696;SDS011;2362;50.780;0.292;2024-03-02T14:53:20;6.10;;;1.00;;
4696;SDS011;2362;50.780;0.292;2024-03-02T14:55:46;9.20;;;1.50;;
4696;SDS011;2362;50.780;0.292;2024-03-02T14:58:12;6.03;;;1.20;;
4696;SDS011;2362;50.780;0.292;2024-03-02T15:00:37;5.10;;;1.07;;
4696;SDS011;2362;50.780;0.292;2024-03-02T15:03:03;5.83;;;1.00;;
4696;SDS011;2362;50.780;0.292;2024-03-02T15:05:32;5.23;;;0.93;;
4696;SDS011;2362;50.780;0.292;2024-03-02T15:07:58;8.43;;;1.43;;
4696;SDS011;2362;50.780;0.292;2024-03-02T15:10:26;3.77;;;0.80;;
4696;SDS011;2362;50.780;0.292;2024-03-02T15:12:52;1.90;;;0.63;;
4696;SDS011;2362;50.780;0.292;2024-03-02T15:15:18;2.63;;;0.47;;